createdAt,value
2023-03-27T00:02:24.074Z,72.50
2023-03-27T00:04:51.215Z,72.60
2023-03-27T00:07:19.989Z,72.60
2023-03-27T00:09:47.151Z,72.80
2023-03-27T00:12:14.284Z,73.10
2023-03-27T00:14:41.590Z,73.30
2023-03-27T00:17:09.413Z,73.30
2023-03-27T00:19:36.597Z,73.40
2023-03-27T00:22:04.024Z,73.40
2023-03-27T00:24:31.399Z,73.50
2023-03-27T00:26:58.475Z,73.50
2023-03-27T00:29:25.846Z,73.30
2023-03-27T00:31:52.817Z,73.30
2023-03-27T00:34:20.430Z,73.10
2023-03-27T00:36:51.249Z,72.40
2023-03-27T00:39:19.480Z,72.60
2023-03-27T00:41:47.381Z,72.60
2023-03-27T00:44:27.687Z,72.60
2023-03-27T00:46:57.210Z,72.60
2023-03-27T00:49:29.033Z,72.70
2023-03-27T00:52:00.000Z,72.60
2023-03-27T00:54:32.301Z,72.70
2023-03-27T00:57:06.843Z,72.80
2023-03-27T00:59:39.786Z,72.90
2023-03-27T01:02:08.414Z,73.10
2023-03-27T01:04:37.812Z,73.20
2023-03-27T01:07:08.769Z,73.10
2023-03-27T01:09:36.629Z,73.30
2023-03-27T01:12:06.730Z,73.10
2023-03-27T01:15:10.935Z,72.90
2023-03-27T01:18:05.360Z,73.20
2023-03-27T01:20:54.464Z,73.20
2023-03-27T01:23:35.743Z,73.20
2023-03-27T01:26:36.251Z,73.30
2023-03-27T01:29:13.957Z,73.30
2023-03-27T01:32:16.685Z,73.20
2023-03-27T01:35:01.305Z,73.40
2023-03-27T01:37:51.852Z,73.70
2023-03-27T01:40:44.137Z,73.70
2023-03-27T01:43:18.495Z,73.60
2023-03-27T01:45:54.803Z,73.40
2023-03-27T01:48:35.310Z,73.30
2023-03-27T01:51:09.578Z,73.40
2023-03-27T01:53:42.352Z,73.40
2023-03-27T01:56:32.814Z,73.00
2023-03-27T01:59:07.282Z,73.20
2023-03-27T02:01:39.059Z,73.00
2023-03-27T02:04:17.879Z,73.00
2023-03-27T02:06:59.302Z,73.00
2023-03-27T02:09:49.327Z,72.90
2023-03-27T02:12:23.878Z,72.90
2023-03-27T02:14:57.071Z,73.10
2023-03-27T02:17:49.735Z,73.10
2023-03-27T02:20:18.027Z,73.10
2023-03-27T02:22:50.557Z,73.20
2023-03-27T02:25:40.200Z,73.30
2023-03-27T02:28:07.738Z,73.40
2023-03-27T02:30:46.373Z,73.40
2023-03-27T02:33:52.381Z,73.50
2023-03-27T02:36:28.458Z,73.30
2023-03-27T02:39:04.733Z,73.50
2023-03-27T02:41:51.391Z,73.50
2023-03-27T02:44:59.187Z,73.50
2023-03-27T02:47:36.599Z,73.60
2023-03-27T02:50:22.593Z,73.50
2023-03-27T02:52:56.734Z,73.70
2023-03-27T02:55:35.734Z,73.70
2023-03-27T02:58:09.083Z,73.80
2023-03-27T03:00:50.448Z,73.90
2023-03-27T03:04:00.259Z,73.90
2023-03-27T03:06:56.481Z,73.90
2023-03-27T03:09:25.028Z,74.00
2023-03-27T03:11:53.539Z,74.10
2023-03-27T03:14:33.746Z,74.00
2023-03-27T03:17:01.171Z,74.00
2023-03-27T03:19:29.374Z,74.10
2023-03-27T03:21:56.529Z,74.10
2023-03-27T03:24:23.485Z,74.10
2023-03-27T03:26:50.784Z,74.30
2023-03-27T03:29:22.212Z,74.30
2023-03-27T03:32:06.470Z,74.30
2023-03-27T03:34:33.817Z,74.50
2023-03-27T03:37:01.200Z,74.50
2023-03-27T03:39:31.636Z,74.70
2023-03-27T03:42:03.032Z,74.90
2023-03-27T03:44:37.365Z,75.00
2023-03-27T03:47:15.033Z,75.10
2023-03-27T03:49:42.798Z,75.20
2023-03-27T03:52:10.190Z,75.40
2023-03-27T03:54:38.953Z,75.50
2023-03-27T03:57:06.263Z,75.60
2023-03-27T03:59:34.318Z,75.70
2023-03-27T04:02:29.448Z,75.80
2023-03-27T04:05:12.068Z,75.90
2023-03-27T04:07:41.349Z,75.90
2023-03-27T04:10:37.560Z,76.00
2023-03-27T04:13:08.738Z,76.00
2023-03-27T04:15:40.416Z,75.90
2023-03-27T04:18:24.854Z,75.80
2023-03-27T04:20:54.630Z,75.80
2023-03-27T04:23:30.338Z,75.90
2023-03-27T04:26:01.112Z,75.90
2023-03-27T04:28:43.693Z,75.70
2023-03-27T04:31:34.757Z,75.60
2023-03-27T04:34:26.016Z,75.50
2023-03-27T04:37:25.724Z,75.50
2023-03-27T04:40:07.088Z,75.50
2023-03-27T04:42:34.319Z,75.50
2023-03-27T04:45:01.875Z,75.50
2023-03-27T04:47:29.888Z,75.60
2023-03-27T04:50:01.031Z,75.70
2023-03-27T04:52:29.816Z,75.70
2023-03-27T04:54:59.300Z,75.80
2023-03-27T04:57:30.970Z,75.60
2023-03-27T05:00:16.834Z,75.30
2023-03-27T05:02:47.907Z,75.10
2023-03-27T05:05:28.430Z,75.70
2023-03-27T05:07:55.462Z,76.50
2023-03-27T05:10:28.209Z,76.90
2023-03-27T05:12:57.853Z,77.60
2023-03-27T05:15:32.378Z,78.00
2023-03-27T05:18:00.638Z,78.30
2023-03-27T05:20:28.061Z,78.40
2023-03-27T05:22:56.527Z,78.40
2023-03-27T05:25:28.954Z,78.40
2023-03-27T05:27:57.035Z,78.50
2023-03-27T05:30:28.318Z,78.60
2023-03-27T05:33:18.770Z,78.70
2023-03-27T05:35:48.623Z,78.90
2023-03-27T05:38:16.943Z,79.00
2023-03-27T05:41:02.720Z,79.20
2023-03-27T05:43:32.233Z,79.40
2023-03-27T05:45:59.581Z,79.50
2023-03-27T05:48:27.480Z,79.50
2023-03-27T05:50:59.451Z,79.20
2023-03-27T05:53:29.941Z,79.30
2023-03-27T05:56:15.608Z,79.30
2023-03-27T05:58:54.145Z,79.30
2023-03-27T06:01:23.342Z,79.30
2023-03-27T06:03:55.994Z,79.30
2023-03-27T06:06:43.738Z,79.30
2023-03-27T06:09:12.727Z,79.40
2023-03-27T06:11:44.975Z,79.50
2023-03-27T06:14:11.895Z,79.70
2023-03-27T06:16:55.888Z,79.20
2023-03-27T06:19:44.517Z,79.40
2023-03-27T06:22:12.679Z,79.50
2023-03-27T06:24:40.148Z,79.50
2023-03-27T06:27:10.716Z,79.30
2023-03-27T06:29:38.363Z,79.50
2023-03-27T06:32:05.393Z,79.60
2023-03-27T06:34:37.789Z,79.60
2023-03-27T06:37:21.643Z,79.80
2023-03-27T06:39:50.727Z,79.70
2023-03-27T06:42:18.485Z,79.60
2023-03-27T06:45:06.154Z,79.40
2023-03-27T06:47:55.822Z,78.80
2023-03-27T06:50:35.557Z,79.20
2023-03-27T06:53:05.806Z,78.90
2023-03-27T06:55:41.048Z,78.90
2023-03-27T06:58:08.716Z,78.30
2023-03-27T07:00:37.409Z,78.80
2023-03-27T07:03:25.715Z,79.00
2023-03-27T07:06:12.561Z,78.50
2023-03-27T07:08:49.179Z,78.60
2023-03-27T07:11:16.560Z,79.10
2023-03-27T07:13:51.885Z,79.70
2023-03-27T07:16:32.198Z,78.70
2023-03-27T07:19:02.231Z,78.10
2023-03-27T07:21:31.176Z,78.30
2023-03-27T07:24:00.813Z,78.20
2023-03-27T07:26:34.079Z,78.20
2023-03-27T07:29:13.557Z,77.30
2023-03-27T07:31:57.650Z,75.30
2023-03-27T07:34:35.026Z,75.10
2023-03-27T07:37:38.215Z,74.10
2023-03-27T07:40:36.797Z,74.30
2023-03-27T07:43:38.184Z,74.90
2023-03-27T07:46:06.492Z,74.70
2023-03-27T07:48:35.960Z,74.00
2023-03-27T07:51:13.498Z,73.90
2023-03-27T07:53:41.764Z,74.20
2023-03-27T07:56:23.582Z,73.90
2023-03-27T07:59:05.829Z,73.00
2023-03-27T08:01:35.247Z,73.30
2023-03-27T08:04:03.748Z,73.90
2023-03-27T08:06:37.278Z,71.90
2023-03-27T08:09:07.077Z,72.10
2023-03-27T08:11:38.663Z,68.90
2023-03-27T08:14:06.612Z,68.20
2023-03-27T08:16:36.423Z,68.90
2023-03-27T08:19:04.442Z,69.10
2023-03-27T08:21:33.366Z,69.80
2023-03-27T08:24:04.719Z,70.10
2023-03-27T08:26:36.647Z,71.60
2023-03-27T08:29:08.404Z,72.00
2023-03-27T08:31:39.429Z,72.90
2023-03-27T08:34:06.693Z,74.20
2023-03-27T08:36:49.427Z,75.50
2023-03-27T08:39:17.501Z,75.90
2023-03-27T08:42:25.554Z,76.10
2023-03-27T08:44:54.989Z,75.80
2023-03-27T08:47:40.489Z,75.80
2023-03-27T08:50:28.219Z,75.80
2023-03-27T08:53:30.863Z,75.00
2023-03-27T08:56:01.318Z,74.10
2023-03-27T08:58:36.361Z,72.90
2023-03-27T09:01:21.676Z,73.40
2023-03-27T09:04:13.737Z,71.20
2023-03-27T09:07:21.933Z,71.90
2023-03-27T09:10:24.440Z,70.40
2023-03-27T09:13:15.351Z,69.40
2023-03-27T09:15:48.729Z,69.60
2023-03-27T09:18:44.255Z,68.70
2023-03-27T09:21:36.468Z,69.50
2023-03-27T09:24:15.754Z,69.00
2023-03-27T09:27:23.398Z,66.60
2023-03-27T09:30:11.691Z,67.30
2023-03-27T09:32:48.821Z,64.20
2023-03-27T09:35:19.262Z,65.00
2023-03-27T09:37:58.761Z,65.30
2023-03-27T09:40:37.964Z,62.30
2023-03-27T09:43:17.839Z,62.30
2023-03-27T09:45:46.778Z,61.80
2023-03-27T09:48:25.349Z,62.90
2023-03-27T09:50:56.743Z,64.50
2023-03-27T09:53:34.932Z,65.50
2023-03-27T09:56:21.143Z,67.40
2023-03-27T09:58:51.369Z,68.80
2023-03-27T10:01:34.649Z,69.70
2023-03-27T10:04:20.212Z,70.50
2023-03-27T10:07:22.158Z,71.70
2023-03-27T10:10:17.620Z,73.00
2023-03-27T10:13:05.450Z,74.10
2023-03-27T10:15:39.384Z,74.70
2023-03-27T10:18:29.636Z,75.40
2023-03-27T10:21:21.683Z,76.20
2023-03-27T10:23:49.985Z,75.10
2023-03-27T10:26:43.749Z,75.30
2023-03-27T10:29:25.948Z,73.40
2023-03-27T10:31:58.149Z,73.70
2023-03-27T10:34:59.720Z,73.00
2023-03-27T10:37:50.501Z,73.50
2023-03-27T10:40:55.317Z,70.30
2023-03-27T10:43:38.189Z,70.10
2023-03-27T10:46:17.422Z,69.40
2023-03-27T10:49:11.409Z,67.00
2023-03-27T10:51:49.042Z,66.80
2023-03-27T10:54:36.858Z,66.10
2023-03-27T10:57:24.336Z,66.70
2023-03-27T11:00:21.452Z,66.70
2023-03-27T11:03:19.044Z,68.50
2023-03-27T11:05:49.461Z,68.80
2023-03-27T11:09:05.249Z,68.50
2023-03-27T11:11:51.296Z,67.90
2023-03-27T11:14:31.329Z,67.40
2023-03-27T11:17:06.434Z,67.80
2023-03-27T11:20:11.354Z,66.90
2023-03-27T11:23:09.306Z,64.00
2023-03-27T11:26:00.025Z,63.80
2023-03-27T11:28:53.155Z,61.90
2023-03-27T11:31:46.270Z,56.70
2023-03-27T11:34:32.668Z,59.00
2023-03-27T11:37:29.952Z,58.20
2023-03-27T11:40:29.303Z,58.90
2023-03-27T11:43:01.318Z,58.00
2023-03-27T11:45:35.092Z,56.20
2023-03-27T11:48:14.401Z,57.90
2023-03-27T11:51:00.764Z,56.20
2023-03-27T11:54:21.927Z,57.10
2023-03-27T11:56:55.940Z,55.60
2023-03-27T12:00:06.954Z,54.50
2023-03-27T12:03:18.901Z,55.30
2023-03-27T12:06:17.001Z,56.60
2023-03-27T12:09:33.236Z,57.80
2023-03-27T12:12:41.145Z,60.30
2023-03-27T12:15:36.876Z,63.70
2023-03-27T12:18:41.252Z,65.00
2023-03-27T12:21:27.790Z,66.40
2023-03-27T12:24:34.130Z,66.60
2023-03-27T12:27:38.562Z,67.80
2023-03-27T12:30:50.193Z,66.90
2023-03-27T12:33:47.239Z,65.80
2023-03-27T12:36:19.637Z,60.60
2023-03-27T12:38:52.115Z,58.80
2023-03-27T12:41:25.958Z,61.30
2023-03-27T12:44:01.851Z,60.10
2023-03-27T12:46:40.883Z,57.80
2023-03-27T12:49:10.939Z,58.80
2023-03-27T12:51:54.838Z,58.70
2023-03-27T12:55:31.315Z,59.30
2023-03-27T12:57:59.546Z,59.80
2023-03-27T13:01:01.084Z,61.20
2023-03-27T13:04:15.870Z,62.20
2023-03-27T13:07:05.351Z,60.60
2023-03-27T13:10:10.317Z,62.10
2023-03-27T13:12:45.292Z,62.80
2023-03-27T13:15:23.229Z,61.80
2023-03-27T13:18:35.921Z,62.70
2023-03-27T13:21:43.045Z,61.80
2023-03-27T13:24:33.048Z,58.00
2023-03-27T13:27:35.092Z,56.30
2023-03-27T13:30:06.864Z,57.30
2023-03-27T13:33:30.871Z,59.70
2023-03-27T13:35:58.476Z,59.70
2023-03-27T13:38:46.534Z,61.50
2023-03-27T13:41:46.484Z,62.20
2023-03-27T13:44:51.562Z,62.80
2023-03-27T13:47:24.650Z,62.50
2023-03-27T13:50:29.891Z,60.60
2023-03-27T13:53:16.778Z,59.90
2023-03-27T13:56:19.104Z,60.80
2023-03-27T13:59:39.954Z,62.60
2023-03-27T14:02:16.410Z,63.60
2023-03-27T14:05:13.757Z,64.70
2023-03-27T14:08:00.276Z,66.10
2023-03-27T14:11:18.851Z,66.70
2023-03-27T14:14:25.269Z,66.40
2023-03-27T14:16:54.725Z,67.00
2023-03-27T14:19:39.069Z,66.40
2023-03-27T14:22:38.038Z,65.70
2023-03-27T14:25:45.554Z,65.30
2023-03-27T14:28:47.012Z,64.60
2023-03-27T14:31:19.170Z,64.60
2023-03-27T14:34:25.623Z,63.80
2023-03-27T14:37:33.364Z,64.50
2023-03-27T14:40:31.644Z,61.90
2023-03-27T14:43:05.334Z,61.20
2023-03-27T14:45:36.859Z,55.70
2023-03-27T14:48:21.218Z,56.40
2023-03-27T14:50:53.512Z,55.90
2023-03-27T14:53:26.230Z,54.50
2023-03-27T14:56:15.225Z,55.00
2023-03-27T14:59:04.371Z,55.40
2023-03-27T15:01:51.439Z,54.30
2023-03-27T15:04:21.983Z,54.20
2023-03-27T15:06:50.051Z,55.50
2023-03-27T15:09:40.326Z,55.10
2023-03-27T15:12:47.730Z,55.40
2023-03-27T15:15:28.915Z,54.10
2023-03-27T15:17:59.748Z,53.00
2023-03-27T15:20:30.455Z,51.90
2023-03-27T15:23:06.530Z,52.80
2023-03-27T15:25:44.767Z,53.00
2023-03-27T15:28:44.296Z,54.90
2023-03-27T15:31:11.985Z,56.00
2023-03-27T15:33:52.884Z,56.20
2023-03-27T15:36:26.989Z,56.00
2023-03-27T15:38:56.102Z,55.50
2023-03-27T15:41:44.522Z,54.90
2023-03-27T15:44:19.248Z,55.40
2023-03-27T15:46:51.757Z,56.00
2023-03-27T15:49:21.947Z,54.80
2023-03-27T15:51:49.185Z,54.60
2023-03-27T15:54:37.610Z,56.30
2023-03-27T15:57:11.684Z,57.20
2023-03-27T15:59:52.489Z,57.10
2023-03-27T16:02:23.231Z,58.40
2023-03-27T16:04:57.668Z,58.60
2023-03-27T16:07:31.588Z,57.20
2023-03-27T16:10:02.816Z,56.90
2023-03-27T16:12:58.375Z,56.00
2023-03-27T16:15:39.040Z,56.00
2023-03-27T16:18:33.556Z,56.30
2023-03-27T16:21:07.860Z,57.30
2023-03-27T16:23:35.001Z,58.20
2023-03-27T16:26:03.906Z,59.00
2023-03-27T16:28:31.314Z,59.40
2023-03-27T16:30:58.487Z,59.80
2023-03-27T16:33:27.521Z,60.30
2023-03-27T16:35:56.629Z,60.10
2023-03-27T16:38:25.459Z,59.70
2023-03-27T16:40:52.373Z,60.30
2023-03-27T16:43:25.856Z,60.40
2023-03-27T16:45:52.843Z,60.50
2023-03-27T16:48:20.341Z,60.50
2023-03-27T16:50:47.287Z,59.60
2023-03-27T16:53:14.132Z,59.10
2023-03-27T16:55:40.986Z,59.50
2023-03-27T16:58:08.326Z,58.30
2023-03-27T17:00:35.247Z,57.80
2023-03-27T17:03:03.013Z,57.40
2023-03-27T17:05:34.439Z,57.30
2023-03-27T17:08:04.155Z,57.00
2023-03-27T17:10:32.673Z,57.20
2023-03-27T17:12:59.672Z,56.90
2023-03-27T17:15:37.259Z,57.30
2023-03-27T17:18:06.077Z,57.70
2023-03-27T17:20:38.594Z,58.20
2023-03-27T17:23:07.266Z,58.60
2023-03-27T17:25:34.900Z,59.10
2023-03-27T17:28:03.344Z,58.80
2023-03-27T17:30:40.879Z,58.00
2023-03-27T17:33:16.884Z,57.20
2023-03-27T17:35:53.090Z,57.20
2023-03-27T17:38:22.838Z,56.90
2023-03-27T17:40:51.240Z,57.10
2023-03-27T17:43:24.025Z,57.00
2023-03-27T17:45:55.380Z,57.10
2023-03-27T17:48:23.700Z,57.40
2023-03-27T17:51:08.093Z,58.00
2023-03-27T17:53:38.714Z,58.80
2023-03-27T17:56:09.986Z,59.50
2023-03-27T18:01:28.817Z,60.10
2023-03-27T18:04:00.924Z,60.50
2023-03-27T18:06:28.280Z,60.70
2023-03-27T18:13:12.983Z,60.90
2023-03-27T18:16:05.208Z,61.10
2023-03-27T18:18:50.538Z,61.40
2023-03-27T18:21:17.963Z,61.40
2023-03-27T18:23:47.147Z,61.90
2023-03-27T18:26:17.295Z,62.10
2023-03-27T18:28:45.299Z,62.60
2023-03-27T18:31:16.013Z,63.10
2023-03-27T18:33:43.399Z,63.40
2023-03-27T18:36:12.275Z,63.80
2023-03-27T18:39:09.828Z,63.90
2023-03-27T18:41:40.142Z,64.20
2023-03-27T18:44:07.484Z,64.70
2023-03-27T18:46:35.005Z,64.90
2023-03-27T18:49:17.468Z,65.30
2023-03-27T18:51:49.140Z,65.30
2023-03-27T18:54:16.796Z,65.40
2023-03-27T18:56:44.197Z,65.60
2023-03-27T18:59:14.604Z,65.80
2023-03-27T19:01:44.293Z,66.10
2023-03-27T19:04:16.472Z,66.10
2023-03-27T19:06:46.462Z,66.30
2023-03-27T19:09:14.712Z,66.60
2023-03-27T19:11:44.379Z,66.60
2023-03-27T19:14:36.994Z,66.70
2023-03-27T19:17:36.090Z,66.80
2023-03-27T19:20:29.482Z,66.80
2023-03-27T19:23:14.631Z,66.90
2023-03-27T19:25:49.918Z,67.00
2023-03-27T19:28:17.899Z,67.10
2023-03-27T19:30:48.467Z,67.10
2023-03-27T19:33:17.357Z,67.20
2023-03-27T19:35:44.941Z,67.20
2023-03-27T19:38:13.407Z,67.40
2023-03-27T19:40:56.552Z,67.50
2023-03-27T19:43:31.557Z,67.60
2023-03-27T19:46:23.580Z,67.60
2023-03-27T19:48:58.270Z,67.60
2023-03-27T19:51:38.983Z,67.70
2023-03-27T19:54:11.374Z,67.70
2023-03-27T19:56:45.158Z,67.70
2023-03-27T19:59:20.763Z,67.60
2023-03-27T20:01:56.864Z,67.60
2023-03-27T20:04:23.939Z,67.70
2023-03-27T20:06:58.174Z,67.70
2023-03-27T20:09:29.720Z,67.90
2023-03-27T20:12:00.326Z,67.90
2023-03-27T20:14:29.702Z,67.90
2023-03-27T20:16:57.769Z,67.80
2023-03-27T20:19:30.871Z,68.00
2023-03-27T20:22:07.948Z,68.00
2023-03-27T20:24:35.696Z,68.00
2023-03-27T20:27:03.811Z,68.30
2023-03-27T20:29:31.358Z,68.30
2023-03-27T20:32:01.114Z,68.40
2023-03-27T20:34:28.163Z,68.40
2023-03-27T20:36:59.132Z,68.40
2023-03-27T20:39:44.793Z,68.40
2023-03-27T20:42:17.665Z,68.40
2023-03-27T20:44:46.391Z,68.30
2023-03-27T20:47:15.385Z,68.30
2023-03-27T20:49:46.490Z,68.30
2023-03-27T20:52:16.768Z,68.30
2023-03-27T20:54:44.242Z,68.30
2023-03-27T20:57:12.861Z,68.20
2023-03-27T20:59:47.451Z,68.30
2023-03-27T21:02:22.242Z,68.40
2023-03-27T21:04:51.827Z,68.40
2023-03-27T21:07:19.650Z,68.40
2023-03-27T21:10:00.359Z,68.40
2023-03-27T21:12:30.744Z,68.50
2023-03-27T21:15:08.017Z,68.50
2023-03-27T21:17:35.540Z,68.70
2023-03-27T21:20:02.827Z,68.70
2023-03-27T21:22:32.758Z,68.80
2023-03-27T21:25:03.099Z,69.00
2023-03-27T21:27:31.147Z,69.10
2023-03-27T21:30:01.902Z,69.10
2023-03-27T21:32:32.366Z,69.30
2023-03-27T21:35:03.456Z,69.40
2023-03-27T21:37:30.931Z,69.50
2023-03-27T21:39:58.470Z,69.50
2023-03-27T21:42:28.711Z,69.60
2023-03-27T21:44:57.361Z,69.70
2023-03-27T21:47:29.664Z,69.80
2023-03-27T21:50:05.234Z,69.90
2023-03-27T21:52:32.493Z,69.90
2023-03-27T21:55:03.274Z,69.90
2023-03-27T21:57:37.371Z,69.90
2023-03-27T22:00:06.587Z,69.90
2023-03-27T22:02:40.690Z,69.70
2023-03-27T22:05:08.766Z,69.60
2023-03-27T22:07:36.221Z,69.60
2023-03-27T22:10:10.987Z,69.60
2023-03-27T22:12:43.245Z,69.50
2023-03-27T22:15:11.179Z,69.60
2023-03-27T22:17:38.471Z,69.50
2023-03-27T22:20:06.944Z,69.60
2023-03-27T22:22:35.635Z,69.60
2023-03-27T22:25:04.627Z,69.60
2023-03-27T22:27:34.599Z,69.50
2023-03-27T22:30:04.091Z,69.50
2023-03-27T22:32:31.692Z,69.70
2023-03-27T22:34:59.500Z,69.70
2023-03-27T22:37:26.896Z,69.70
2023-03-27T22:39:54.385Z,69.80
2023-03-27T22:42:24.648Z,69.80
2023-03-27T22:44:51.899Z,69.90
2023-03-27T22:47:23.819Z,70.10
2023-03-27T22:49:51.450Z,70.00
2023-03-27T22:52:18.589Z,70.10
2023-03-27T22:54:46.102Z,70.20
2023-03-27T22:57:13.392Z,70.20
2023-03-27T22:59:40.632Z,70.30
2023-03-27T23:02:07.999Z,70.40
2023-03-27T23:04:35.582Z,70.40
2023-03-27T23:07:09.553Z,70.30
2023-03-27T23:09:36.986Z,70.50
2023-03-27T23:12:10.670Z,70.70
2023-03-27T23:14:38.090Z,70.70
2023-03-27T23:17:09.081Z,70.80
2023-03-27T23:19:36.490Z,70.80
2023-03-27T23:22:04.569Z,70.70
2023-03-27T23:24:31.670Z,70.90
2023-03-27T23:26:58.921Z,71.00
2023-03-27T23:29:26.432Z,71.00
2023-03-27T23:31:53.899Z,71.00
2023-03-27T23:34:23.028Z,71.00
2023-03-27T23:36:50.514Z,71.00
2023-03-27T23:39:17.785Z,71.00
2023-03-27T23:41:45.047Z,71.10
2023-03-27T23:44:12.840Z,71.00
2023-03-27T23:46:40.272Z,71.20
2023-03-27T23:49:08.239Z,71.20
2023-03-27T23:51:35.603Z,71.30
2023-03-27T23:54:09.082Z,71.30
2023-03-27T23:56:36.616Z,71.30
2023-03-27T23:59:24.308Z,71.30
